Time;durP1;ratioP1;P1;durP2;ratioP2;P2;SDS_P1;SDS_P2;PMS_P1;PMS_P2;Temp;Humidity;BMP_temperature;BMP_pressure;BME280_temperature;BME280_humidity;BME280_pressure;Samples;Min_cycle;Max_cycle;Signal;HPM_P1;HPM_P2
2022/05/03 00:00:21;;;;;;;11.20;7.82;;;6.30;99.90;;;;;;5020446;28;20053;-72
2022/05/03 00:03:08;;;;;;;11.63;8.00;;;6.20;99.90;;;;;;5037690;28;20122;-73
2022/05/03 00:06:06;;;;;;;10.30;7.25;;;6.20;99.90;;;;;;5037436;28;20062;-73
2022/05/03 00:08:40;;;;;;;11.80;7.38;;;6.10;99.90;;;;;;4986503;28;20054;-72
2022/05/03 00:11:22;;;;;;;10.35;7.07;;;6.00;99.90;;;;;;5037646;28;20374;-71
2022/05/03 00:14:25;;;;;;;10.30;7.72;;;6.00;99.90;;;;;;5037348;28;20037;-72
2022/05/03 00:16:52;;;;;;;11.15;8.07;;;5.90;99.90;;;;;;5019935;28;20520;-71
2022/05/03 00:19:19;;;;;;;10.55;7.65;;;5.90;99.90;;;;;;5037137;28;20049;-72
2022/05/03 00:21:45;;;;;;;10.88;7.88;;;5.90;99.90;;;;;;5037230;28;20054;-71
2022/05/03 00:24:11;;;;;;;12.00;7.93;;;5.90;99.90;;;;;;5037376;28;20053;-71
2022/05/03 00:26:37;;;;;;;10.38;7.60;;;5.90;99.90;;;;;;5036514;28;20045;-71
2022/05/03 00:29:03;;;;;;;11.57;8.23;;;5.80;99.90;;;;;;5036901;28;20505;-72
2022/05/03 00:31:29;;;;;;;12.00;8.70;;;5.80;99.90;;;;;;5037037;28;20038;-72
2022/05/03 00:33:56;;;;;;;12.35;8.77;;;5.80;99.90;;;;;;5037080;28;20454;-73
2022/05/03 00:36:22;;;;;;;14.40;9.07;;;5.80;99.90;;;;;;5037150;28;20057;-71
2022/05/03 00:38:48;;;;;;;13.07;9.00;;;5.70;99.90;;;;;;5036861;28;20045;-71
2022/05/03 00:41:25;;;;;;;14.77;8.77;;;5.70;99.90;;;;;;5019560;28;20545;-71
2022/05/03 00:44:55;;;;;;;12.10;7.85;;;5.70;99.90;;;;;;5036999;28;20042;-72
2022/05/03 00:47:04;;;;;;;13.38;8.60;;;5.70;99.90;;;;;;5036620;28;20446;-71
2022/05/03 00:50:03;;;;;;;15.43;8.85;;;5.70;99.90;;;;;;5019732;28;20053;-72
2022/05/03 00:53:01;;;;;;;12.77;8.35;;;5.60;99.90;;;;;;5037132;28;20072;-72
2022/05/03 00:56:09;;;;;;;11.40;7.97;;;5.60;99.90;;;;;;5018533;28;20466;-72
2022/05/03 00:58:56;;;;;;;12.48;8.75;;;5.60;99.90;;;;;;5010703;28;20129;-72
2022/05/03 01:01:32;;;;;;;14.52;9.15;;;5.50;99.90;;;;;;5162058;22;20050;-72
2022/05/03 01:04:31;;;;;;;12.02;9.10;;;5.50;99.90;;;;;;5036316;28;20136;-72
2022/05/03 01:07:25;;;;;;;12.70;9.45;;;5.50;99.90;;;;;;5036061;28;20052;-71
2022/05/03 01:10:17;;;;;;;13.35;9.75;;;5.40;99.90;;;;;;5036575;28;20091;-72
2022/05/03 01:12:48;;;;;;;13.70;9.95;;;5.40;99.90;;;;;;5036432;28;20075;-71
2022/05/03 01:15:26;;;;;;;14.68;9.93;;;5.30;99.90;;;;;;5036434;28;20050;-72
2022/05/03 01:18:08;;;;;;;18.67;11.30;;;5.30;99.90;;;;;;5035890;28;20068;-72
2022/05/03 01:20:42;;;;;;;15.18;9.93;;;5.30;99.90;;;;;;5018640;28;20147;-72
2022/05/03 01:23:32;;;;;;;14.68;10.77;;;5.30;99.90;;;;;;5018808;28;20053;-71
2022/05/03 01:26:18;;;;;;;12.60;9.93;;;5.30;99.90;;;;;;5036207;28;20045;-72
2022/05/03 01:29:10;;;;;;;13.80;9.90;;;5.20;99.90;;;;;;5035286;28;20476;-72
2022/05/03 01:31:36;;;;;;;13.00;9.73;;;5.20;99.90;;;;;;5035510;28;20047;-71
2022/05/03 01:34:02;;;;;;;15.10;10.20;;;5.20;99.90;;;;;;5035640;28;20187;-72
2022/05/03 01:36:44;;;;;;;11.98;9.13;;;5.20;99.90;;;;;;5036011;28;20041;-71
2022/05/03 01:39:33;;;;;;;12.20;9.77;;;5.20;99.90;;;;;;5035797;28;20049;-71
2022/05/03 01:42:08;;;;;;;16.48;10.75;;;5.20;99.90;;;;;;5036071;28;20124;-71
2022/05/03 01:44:36;;;;;;;17.25;11.15;;;5.20;99.90;;;;;;5035658;28;20456;-72
2022/05/03 01:47:24;;;;;;;15.98;11.27;;;5.20;99.90;;;;;;5035721;28;20127;-71
2022/05/03 01:50:18;;;;;;;13.73;10.75;;;5.20;99.90;;;;;;5035791;28;20041;-72
2022/05/03 01:53:05;;;;;;;15.05;10.85;;;5.20;99.90;;;;;;5035296;28;20056;-72
2022/05/03 01:56:09;;;;;;;15.90;10.98;;;5.20;99.90;;;;;;5018156;28;20045;-72
2022/05/03 01:59:03;;;;;;;16.27;12.23;;;5.10;99.90;;;;;;5035146;28;20045;-72
2022/05/03 02:01:46;;;;;;;16.70;10.43;;;5.10;99.90;;;;;;5035719;28;20096;-72
2022/05/03 02:04:15;;;;;;;14.45;11.23;;;5.10;99.90;;;;;;5035472;28;20092;-73
2022/05/03 02:06:55;;;;;;;16.05;11.30;;;5.00;99.90;;;;;;5035137;28;20165;-72
2022/05/03 02:09:30;;;;;;;14.63;11.50;;;5.00;99.90;;;;;;5035304;28;20135;-73
2022/05/03 02:12:07;;;;;;;14.00;10.35;;;5.00;99.90;;;;;;5035627;28;20355;-72
2022/05/03 02:14:49;;;;;;;15.80;10.48;;;5.00;99.90;;;;;;5017718;28;20115;-71
2022/05/03 02:17:53;;;;;;;16.55;11.68;;;5.00;99.90;;;;;;5034980;28;20114;-71
2022/05/03 02:20:36;;;;;;;13.43;9.60;;;5.00;99.90;;;;;;5034963;28;20458;-73
2022/05/03 02:23:37;;;;;;;16.42;10.88;;;4.90;99.90;;;;;;5035013;28;20385;-71
2022/05/03 02:26:38;;;;;;;14.27;10.18;;;4.90;99.90;;;;;;5034933;28;20041;-72
2022/05/03 02:29:11;;;;;;;15.80;10.40;;;4.90;99.90;;;;;;5034045;28;20068;-71
2022/05/03 02:32:01;;;;;;;14.55;10.57;;;4.90;99.90;;;;;;5035063;28;20061;-71
2022/05/03 02:34:45;;;;;;;16.38;11.57;;;4.90;99.90;;;;;;5034646;28;20045;-72
2022/05/03 02:37:21;;;;;;;12.82;10.30;;;4.90;99.90;;;;;;5035369;28;20095;-72
2022/05/03 02:40:21;;;;;;;19.67;11.20;;;4.80;99.90;;;;;;5034843;28;20064;-72
2022/05/03 02:42:51;;;;;;;15.07;11.38;;;4.80;99.90;;;;;;4979957;28;20102;-71
2022/05/03 02:45:18;;;;;;;14.10;11.02;;;4.80;99.90;;;;;;5034040;28;20374;-72
2022/05/03 02:47:55;;;;;;;15.25;11.15;;;4.80;99.90;;;;;;5035207;28;20041;-72
2022/05/03 02:50:29;;;;;;;14.35;11.50;;;4.70;99.90;;;;;;5034593;28;20061;-72
2022/05/03 02:53:02;;;;;;;18.77;11.70;;;4.70;99.90;;;;;;5034023;28;20045;-71
2022/05/03 02:55:46;;;;;;;;;;;4.70;99.90;;;;;;5034414;28;20046;-72
2022/05/03 02:58:37;;;;;;;14.70;10.65;;;4.70;99.90;;;;;;5034268;28;19928;-72
2022/05/03 03:01:48;;;;;;;17.38;13.13;;;4.70;99.90;;;;;;5047994;28;20122;-72
2022/05/03 03:04:34;;;;;;;17.45;12.18;;;4.70;99.90;;;;;;5054599;28;20053;-74
2022/05/03 03:07:02;;;;;;;17.17;11.70;;;4.60;99.90;;;;;;5053031;28;20053;-72
2022/05/03 03:09:43;;;;;;;15.32;11.75;;;4.60;99.90;;;;;;5019727;28;20049;-72
2022/05/03 03:12:11;;;;;;;15.05;11.88;;;4.60;99.90;;;;;;5054503;28;20037;-71
2022/05/03 03:14:46;;;;;;;15.52;11.57;;;4.60;99.90;;;;;;5036872;28;20067;-71
2022/05/03 03:17:19;;;;;;;17.55;12.75;;;4.60;99.90;;;;;;5054486;28;20049;-72
2022/05/03 03:19:59;;;;;;;18.10;12.90;;;4.70;99.90;;;;;;5054311;28;20131;-72
2022/05/03 03:22:31;;;;;;;19.30;13.30;;;4.80;99.90;;;;;;5046633;28;20041;-71
2022/05/03 03:24:58;;;;;;;16.65;12.90;;;4.90;99.90;;;;;;5037132;28;20469;-71
2022/05/03 03:27:26;;;;;;;17.90;13.32;;;5.00;99.90;;;;;;5054339;28;20567;-71
2022/05/03 03:29:55;;;;;;;20.25;12.63;;;5.10;99.90;;;;;;5054267;28;20079;-72
2022/05/03 03:32:26;;;;;;;17.60;12.98;;;5.20;99.90;;;;;;5054055;28;20045;-72
2022/05/03 03:34:57;;;;;;;16.45;13.35;;;5.30;99.90;;;;;;5054511;28;20371;-73
2022/05/03 03:37:26;;;;;;;18.02;14.00;;;5.40;99.90;;;;;;5054331;28;20044;-72
2022/05/03 03:39:51;;;;;;;16.95;13.25;;;5.50;99.90;;;;;;5054216;28;20041;-72
2022/05/03 03:42:17;;;;;;;17.48;13.70;;;5.60;99.90;;;;;;5054394;28;20056;-72
2022/05/03 03:44:43;;;;;;;21.25;14.07;;;5.70;99.90;;;;;;5054063;28;20049;-72
2022/05/03 03:47:09;;;;;;;14.95;12.95;;;5.80;99.90;;;;;;5053899;28;20084;-72
2022/05/03 03:49:36;;;;;;;24.35;15.35;;;5.90;99.90;;;;;;5064448;28;20422;-71
2022/05/03 03:52:02;;;;;;;17.95;14.65;;;5.90;99.90;;;;;;5053791;28;20112;-71
2022/05/03 03:54:28;;;;;;;18.58;14.23;;;6.00;99.90;;;;;;5052626;28;20124;-73
2022/05/03 03:56:55;;;;;;;16.45;13.10;;;6.00;99.90;;;;;;5039774;28;20041;-73
2022/05/03 03:59:22;;;;;;;17.52;13.55;;;6.00;99.90;;;;;;5030936;28;20362;-72
2022/05/03 04:01:50;;;;;;;18.58;13.75;;;5.90;99.90;;;;;;5020714;28;20476;-71
2022/05/03 04:04:17;;;;;;;15.27;12.07;;;5.80;99.90;;;;;;5020091;28;20090;-72
2022/05/03 04:06:43;;;;;;;15.68;12.32;;;5.80;99.90;;;;;;5038215;28;20048;-72
2022/05/03 04:09:09;;;;;;;17.95;12.80;;;5.70;99.90;;;;;;5037655;28;20052;-73
2022/05/03 04:11:43;;;;;;;19.00;12.77;;;5.80;99.90;;;;;;5047056;28;20044;-72
2022/05/03 04:14:09;;;;;;;19.95;13.05;;;5.70;99.90;;;;;;5056718;28;20099;-72
2022/05/03 04:16:34;;;;;;;19.85;13.73;;;5.70;99.90;;;;;;5055215;28;20076;-72
2022/05/03 04:19:00;;;;;;;18.70;14.43;;;5.70;99.90;;;;;;5057456;28;20350;-72
2022/05/03 04:21:25;;;;;;;20.42;14.73;;;5.70;99.90;;;;;;5056982;28;20045;-72
2022/05/03 04:23:51;;;;;;;19.45;14.38;;;5.90;99.90;;;;;;5057308;28;20067;-73
2022/05/03 04:26:17;;;;;;;20.70;15.02;;;6.00;99.90;;;;;;5038834;28;20037;-72
2022/05/03 04:28:42;;;;;;;19.80;15.90;;;6.10;99.90;;;;;;5039724;28;20049;-72
2022/05/03 04:31:08;;;;;;;20.02;15.35;;;6.20;99.90;;;;;;5039493;28;20040;-72
2022/05/03 04:33:34;;;;;;;19.90;15.40;;;6.30;99.90;;;;;;5057440;28;20044;-72
2022/05/03 04:35:59;;;;;;;21.55;16.08;;;6.30;99.90;;;;;;5056730;28;20055;-72
2022/05/03 04:38:25;;;;;;;25.75;15.48;;;6.40;99.90;;;;;;5056896;28;20080;-72
2022/05/03 04:41:00;;;;;;;24.35;16.25;;;6.50;99.90;;;;;;5056478;28;20052;-73
2022/05/03 04:43:26;;;;;;;20.13;16.20;;;6.60;99.90;;;;;;5056398;28;20044;-72
2022/05/03 04:45:52;;;;;;;21.75;16.35;;;6.70;99.90;;;;;;5057062;28;20106;-73
2022/05/03 04:48:18;;;;;;;22.63;17.50;;;6.80;99.90;;;;;;5039232;28;20149;-72
2022/05/03 04:50:44;;;;;;;22.90;16.70;;;7.00;99.90;;;;;;5056782;28;20045;-73
2022/05/03 04:53:09;;;;;;;22.83;16.40;;;6.90;99.90;;;;;;5056662;28;20076;-72
2022/05/03 04:55:41;;;;;;;20.25;15.52;;;6.90;99.90;;;;;;5056360;28;20048;-72
2022/05/03 04:58:07;;;;;;;24.85;17.45;;;7.10;99.90;;;;;;5056967;28;20103;-72
2022/05/03 05:00:33;;;;;;;20.75;16.35;;;7.10;99.90;;;;;;5056484;28;20099;-72
2022/05/03 05:02:59;;;;;;;23.17;17.60;;;7.20;99.90;;;;;;5039037;28;20086;-72
2022/05/03 05:05:24;;;;;;;27.15;18.33;;;7.20;99.90;;;;;;5056581;28;20123;-73
2022/05/03 05:07:50;;;;;;;22.05;17.38;;;7.30;99.90;;;;;;5055248;28;20059;-72
2022/05/03 05:10:27;;;;;;;25.85;18.67;;;7.40;99.90;;;;;;5056462;28;20044;-72
2022/05/03 05:12:55;;;;;;;21.90;16.60;;;7.50;99.90;;;;;;5055920;28;20142;-72
2022/05/03 05:15:25;;;;;;;23.95;16.25;;;7.50;99.90;;;;;;5038791;28;20045;-73
2022/05/03 05:17:51;;;;;;;25.65;17.95;;;7.60;99.90;;;;;;5056370;28;20060;-73
2022/05/03 05:20:17;;;;;;;25.48;18.58;;;7.60;99.90;;;;;;5056114;28;20037;-72
2022/05/03 05:22:43;;;;;;;21.48;17.73;;;7.60;99.90;;;;;;5056192;28;20045;-73
2022/05/03 05:25:09;;;;;;;24.15;17.45;;;7.60;99.90;;;;;;5038996;28;20139;-72
2022/05/03 05:27:35;;;;;;;23.75;18.20;;;7.70;99.90;;;;;;5056104;28;20127;-73
2022/05/03 05:30:01;;;;;;;24.73;18.92;;;7.70;99.90;;;;;;5055959;28;20410;-73
2022/05/03 05:32:26;;;;;;;22.10;17.55;;;7.80;99.90;;;;;;5055877;28;20192;-72
2022/05/03 05:34:52;;;;;;;24.95;18.55;;;7.80;99.90;;;;;;5055589;28;20345;-73
2022/05/03 05:37:17;;;;;;;25.60;19.23;;;7.90;99.90;;;;;;5055640;28;20389;-73
2022/05/03 05:39:44;;;;;;;24.63;18.55;;;8.00;99.90;;;;;;5055604;28;20064;-72
2022/05/03 05:42:11;;;;;;;24.65;17.55;;;8.10;99.90;;;;;;5055329;28;20115;-72
2022/05/03 05:44:37;;;;;;;22.10;17.98;;;8.10;99.90;;;;;;5055421;28;20055;-73
2022/05/03 05:47:04;;;;;;;23.08;18.83;;;8.20;99.90;;;;;;5056597;28;20081;-70
2022/05/03 05:49:30;;;;;;;24.50;18.65;;;8.20;99.90;;;;;;5055101;28;20072;-72
2022/05/03 05:53:31;;;;;;;23.77;19.02;;;8.30;99.90;;;;;;5055329;28;20041;-72
2022/05/03 05:54:42;;;;;;;27.30;18.77;;;8.30;99.90;;;;;;5038220;28;20071;-73
2022/05/03 05:57:07;;;;;;;30.15;19.83;;;8.40;99.90;;;;;;5055391;28;20358;-72
2022/05/03 05:59:33;;;;;;;26.08;19.40;;;8.40;99.90;;;;;;5055258;28;20120;-73
2022/05/03 06:01:59;;;;;;;25.23;18.50;;;8.50;99.90;;;;;;5055517;28;20067;-72
2022/05/03 06:04:27;;;;;;;25.48;19.38;;;8.50;99.90;;;;;;5055115;28;20053;-73
2022/05/03 06:06:54;;;;;;;25.80;19.77;;;8.50;99.90;;;;;;5037692;28;20053;-73
2022/05/03 06:09:20;;;;;;;30.85;20.88;;;8.50;99.90;;;;;;5055142;28;20049;-71
2022/05/03 06:11:46;;;;;;;28.75;21.65;;;8.60;99.90;;;;;;5054523;28;20045;-72
2022/05/03 06:14:11;;;;;;;30.23;21.10;;;8.60;99.90;;;;;;5052640;28;20057;-72
2022/05/03 06:16:56;;;;;;;32.55;23.05;;;8.60;99.90;;;;;;5036935;28;20132;-72
2022/05/03 06:19:23;;;;;;;33.83;23.85;;;8.60;99.90;;;;;;5037173;28;20053;-72
2022/05/03 06:21:49;;;;;;;32.33;24.08;;;8.70;99.90;;;;;;5055477;28;20063;-72
2022/05/03 06:24:14;;;;;;;35.17;23.77;;;8.70;99.90;;;;;;5055405;28;20040;-73
2022/05/03 06:26:40;;;;;;;35.53;25.10;;;8.80;99.90;;;;;;5055198;28;20507;-72
2022/05/03 06:29:08;;;;;;;36.92;26.13;;;8.90;99.90;;;;;;5054991;28;20080;-73
2022/05/03 06:31:37;;;;;;;36.95;24.90;;;9.00;99.90;;;;;;5054460;28;20453;-72
2022/05/03 06:34:04;;;;;;;39.22;26.70;;;9.10;99.90;;;;;;5054807;28;20041;-73
2022/05/03 06:36:29;;;;;;;41.25;27.50;;;9.10;99.90;;;;;;5054568;28;20056;-73
2022/05/03 06:38:55;;;;;;;42.63;25.15;;;9.20;99.90;;;;;;5054814;28;20040;-73
2022/05/03 06:41:21;;;;;;;38.90;26.13;;;9.30;99.90;;;;;;5054260;28;20048;-73
2022/05/03 06:43:46;;;;;;;37.53;26.73;;;9.20;99.90;;;;;;5054855;28;20044;-73
2022/05/03 06:46:12;;;;;;;40.72;26.05;;;9.20;99.90;;;;;;5052230;28;20053;-72
2022/05/03 06:48:38;;;;;;;37.67;26.10;;;9.30;99.90;;;;;;5034777;28;20049;-73
2022/05/03 06:51:05;;;;;;;37.92;26.08;;;9.30;99.90;;;;;;5043080;28;20457;-70
2022/05/03 06:53:31;;;;;;;39.80;26.80;;;9.20;99.90;;;;;;5034895;28;20440;-70
2022/05/03 06:55:57;;;;;;;35.03;23.10;;;9.30;99.90;;;;;;5034557;28;20077;-73
2022/05/03 06:58:22;;;;;;;40.92;22.90;;;9.30;99.90;;;;;;5034471;28;20099;-71
2022/05/03 07:00:48;;;;;;;38.67;24.13;;;9.30;99.90;;;;;;5016379;28;20426;-73
2022/05/03 07:03:13;;;;;;;34.72;20.33;;;9.40;99.90;;;;;;5034631;28;20046;-73
2022/05/03 07:05:40;;;;;;;33.13;20.52;;;9.40;99.90;;;;;;5034859;28;20056;-72
2022/05/03 07:08:08;;;;;;;34.42;17.05;;;9.40;99.90;;;;;;5016795;28;20045;-73
2022/05/03 07:10:34;;;;;;;33.80;17.20;;;9.50;99.90;;;;;;5039308;28;20041;-72
2022/05/03 07:12:59;;;;;;;24.48;11.65;;;9.50;99.90;;;;;;5054339;28;20315;-72
2022/05/03 07:15:26;;;;;;;24.92;8.52;;;9.60;99.90;;;;;;5054186;28;20553;-72
2022/05/03 07:23:23;;;;;;;14.40;5.93;;;9.50;99.90;;;;;;5054840;28;20377;-72
2022/05/03 07:25:50;;;;;;;15.98;6.78;;;9.40;99.90;;;;;;5054181;28;20044;-73
2022/05/03 07:28:16;;;;;;;14.57;5.47;;;9.40;99.90;;;;;;5054410;28;20045;-72
2022/05/03 07:30:43;;;;;;;15.55;5.80;;;9.40;99.90;;;;;;5055560;28;20059;-72
2022/05/03 07:33:08;;;;;;;16.17;5.68;;;9.40;99.90;;;;;;5058230;28;20419;-72
2022/05/03 07:35:34;;;;;;;15.13;6.22;;;9.50;99.90;;;;;;5057517;28;20049;-70
2022/05/03 07:38:00;;;;;;;19.73;6.38;;;9.50;99.90;;;;;;5057952;28;20045;-69
2022/05/03 07:40:25;;;;;;;14.65;5.95;;;9.50;99.90;;;;;;5057843;28;20446;-70
2022/05/03 07:42:51;;;;;;;14.43;5.53;;;9.60;99.90;;;;;;5054720;28;20479;-73
2022/05/03 07:45:16;;;;;;;13.68;6.10;;;9.70;99.90;;;;;;5058088;28;20450;-70
2022/05/03 07:47:42;;;;;;;13.27;5.95;;;9.70;99.90;;;;;;5057977;28;20041;-69
2022/05/03 07:50:08;;;;;;;14.25;6.18;;;9.80;99.90;;;;;;5057794;28;20441;-69
2022/05/03 07:52:39;;;;;;;15.45;6.28;;;9.90;99.90;;;;;;5058213;28;20358;-72
2022/05/03 07:55:07;;;;;;;17.08;7.07;;;10.00;99.90;;;;;;5058016;28;20124;-72
2022/05/03 07:57:33;;;;;;;17.58;6.70;;;10.00;99.90;;;;;;5040240;28;20041;-71
2022/05/03 07:59:59;;;;;;;17.55;6.90;;;10.00;99.90;;;;;;5057662;28;20044;-72
2022/05/03 08:02:25;;;;;;;19.90;6.22;;;10.10;99.90;;;;;;5057344;28;20053;-71
2022/05/03 08:04:52;;;;;;;23.95;7.35;;;10.10;99.90;;;;;;5057232;28;20116;-70
2022/05/03 08:07:18;;;;;;;20.50;7.35;;;10.10;99.90;;;;;;5057465;28;20132;-71
2022/05/03 08:09:44;;;;;;;16.75;5.88;;;10.10;99.90;;;;;;5057535;28;20084;-72
2022/05/03 08:12:11;;;;;;;21.73;7.05;;;10.10;99.90;;;;;;5056128;28;20032;-72
2022/05/03 08:14:36;;;;;;;23.58;6.82;;;10.10;99.90;;;;;;5057429;28;20357;-73
2022/05/03 08:17:02;;;;;;;17.38;6.70;;;10.10;99.90;;;;;;5057529;28;20048;-72
2022/05/03 08:19:28;;;;;;;20.35;6.35;;;10.20;99.90;;;;;;5057180;28;20040;-72
2022/05/03 08:21:56;;;;;;;18.77;5.55;;;10.20;99.90;;;;;;5039748;28;20045;-72
2022/05/03 08:24:22;;;;;;;23.08;6.13;;;10.20;99.90;;;;;;5057153;28;20041;-72
2022/05/03 08:26:48;;;;;;;17.88;5.88;;;10.20;99.90;;;;;;5057273;28;20049;-73
2022/05/03 08:29:14;;;;;;;25.80;5.45;;;10.20;99.90;;;;;;5057008;28;20055;-72
2022/05/03 08:31:39;;;;;;;23.17;5.97;;;10.30;99.90;;;;;;5057084;28;20037;-72
2022/05/03 08:34:05;;;;;;;23.15;5.72;;;10.30;99.90;;;;;;5057066;28;20111;-72
2022/05/03 08:36:30;;;;;;;20.05;6.28;;;10.30;99.90;;;;;;5056819;28;20045;-72
2022/05/03 08:44:36;;;;;;;20.13;5.80;;;10.50;99.90;;;;;;5039097;28;20048;-72
2022/05/03 08:47:02;;;;;;;31.25;6.60;;;10.50;99.90;;;;;;5057096;28;20469;-72
2022/05/03 08:50:02;;;;;;;24.40;5.93;;;10.60;99.90;;;;;;5057054;28;20055;-72
2022/05/03 08:52:29;;;;;;;17.00;5.75;;;10.60;99.90;;;;;;5039901;28;20041;-72
2022/05/03 08:54:58;;;;;;;19.98;5.15;;;10.60;99.90;;;;;;5056630;28;20048;-73
2022/05/03 08:57:24;;;;;;;17.30;4.90;;;10.70;99.90;;;;;;5056351;28;20041;-72
2022/05/03 08:59:52;;;;;;;15.20;5.00;;;10.70;99.90;;;;;;5039494;28;20131;-72
2022/05/03 09:02:18;;;;;;;23.67;5.35;;;10.70;99.90;;;;;;5056755;28;20534;-72
2022/05/03 09:04:43;;;;;;;18.35;5.28;;;10.80;99.90;;;;;;5056631;28;20045;-72
2022/05/03 09:07:19;;;;;;;19.13;5.22;;;10.90;99.90;;;;;;5056447;28;20048;-72
2022/05/03 09:09:45;;;;;;;18.67;4.53;;;10.90;99.90;;;;;;5055239;28;20087;-73
2022/05/03 09:12:28;;;;;;;24.60;6.15;;;10.80;99.90;;;;;;5033187;28;20052;-72
2022/05/03 09:14:59;;;;;;;17.33;4.15;;;10.70;99.90;;;;;;5018976;28;20041;-72
2022/05/03 09:17:37;;;;;;;13.93;4.68;;;10.70;99.90;;;;;;5036215;28;20128;-72
2022/05/03 09:25:54;;;;;;;15.30;3.80;;;11.20;99.90;;;;;;5018381;28;20168;-72
2022/05/03 09:28:21;;;;;;;15.80;4.07;;;11.20;99.90;;;;;;5055103;28;20064;-73
2022/05/03 09:30:50;;;;;;;16.20;4.05;;;11.30;99.90;;;;;;5055212;28;20128;-72
2022/05/03 09:33:21;;;;;;;16.38;4.13;;;11.40;99.90;;;;;;5055817;28;20396;-72
2022/05/03 09:35:48;;;;;;;17.83;3.75;;;11.40;99.90;;;;;;5053104;28;20166;-72
2022/05/03 09:38:14;;;;;;;14.32;3.42;;;11.60;99.90;;;;;;5055756;28;20041;-72
2022/05/03 09:40:45;;;;;;;16.30;3.70;;;11.70;99.90;;;;;;5055802;28;20090;-72
2022/05/03 09:43:11;;;;;;;15.35;3.80;;;11.80;99.90;;;;;;5056092;28;20128;-73
2022/05/03 09:45:37;;;;;;;12.50;3.45;;;11.80;99.90;;;;;;5055747;28;20103;-72
2022/05/03 09:48:04;;;;;;;16.40;4.18;;;11.70;99.90;;;;;;5055605;28;20048;-73
2022/05/03 09:50:29;;;;;;;16.70;4.03;;;11.70;99.90;;;;;;5055964;28;20091;-72
2022/05/03 09:52:56;;;;;;;17.35;4.03;;;11.60;99.90;;;;;;5055122;28;20080;-72
2022/05/03 09:55:30;;;;;;;13.57;3.50;;;11.60;99.90;;;;;;5055573;28;20040;-72
2022/05/03 09:57:59;;;;;;;21.30;3.65;;;11.70;99.90;;;;;;5054592;28;20037;-72
2022/05/03 10:00:25;;;;;;;16.55;3.92;;;11.60;99.90;;;;;;5055423;28;20147;-73
2022/05/03 10:02:52;;;;;;;12.27;3.42;;;11.60;99.90;;;;;;5056820;28;20101;-72
2022/05/03 10:05:20;;;;;;;13.20;3.60;;;11.70;99.90;;;;;;5055173;28;20091;-72
2022/05/03 10:07:46;;;;;;;19.38;3.55;;;11.90;99.90;;;;;;5052267;28;20541;-73
2022/05/03 10:10:14;;;;;;;17.40;4.55;;;12.10;99.90;;;;;;5055019;28;20124;-72
2022/05/03 10:12:45;;;;;;;10.75;3.58;;;12.30;99.90;;;;;;5054983;28;20052;-73
2022/05/03 10:15:12;;;;;;;16.60;3.75;;;12.40;99.90;;;;;;5055250;28;20351;-72
2022/05/03 10:20:42;;;;;;;9.75;3.30;;;12.50;99.90;;;;;;5054568;28;20474;-73
2022/05/03 10:23:23;;;;;;;12.82;2.97;;;12.70;99.90;;;;;;5055069;28;20056;-73
2022/05/03 10:26:05;;;;;;;13.30;3.80;;;12.80;99.90;;;;;;5037690;28;20053;-73
2022/05/03 10:29:08;;;;;;;13.10;3.55;;;12.90;99.90;;;;;;5054298;28;20087;-73
2022/05/03 10:31:54;;;;;;;11.70;3.60;;;13.20;99.90;;;;;;5054544;28;20045;-72
2022/05/03 10:34:38;;;;;;;12.90;3.50;;;13.50;99.90;;;;;;5046549;28;20037;-72
2022/05/03 10:37:03;;;;;;;12.63;3.13;;;13.70;99.90;;;;;;5054666;28;20045;-73
2022/05/03 10:39:29;;;;;;;12.70;3.00;;;13.80;99.90;;;;;;5054747;28;20118;-73
2022/05/03 10:42:16;;;;;;;13.57;3.17;;;13.80;99.90;;;;;;5054947;28;20045;-73
2022/05/03 10:44:53;;;;;;;11.77;3.00;;;13.90;99.90;;;;;;5054892;28;20075;-74
2022/05/03 10:47:39;;;;;;;8.20;2.88;;;14.00;99.90;;;;;;5055187;28;20338;-73
2022/05/03 10:50:31;;;;;;;12.27;3.05;;;14.20;99.90;;;;;;5054844;28;20051;-71
2022/05/03 10:52:59;;;;;;;9.85;2.72;;;14.10;99.90;;;;;;5046350;28;20154;-70
2022/05/03 10:55:32;;;;;;;11.63;3.13;;;14.10;99.90;;;;;;5054666;28;20059;-70
2022/05/03 10:58:20;;;;;;;8.40;3.00;;;14.10;99.90;;;;;;5036585;28;20053;-74
2022/05/03 11:01:09;;;;;;;12.73;3.08;;;14.20;99.90;;;;;;5054276;28;20049;-72
2022/05/03 11:03:58;;;;;;;13.57;2.90;;;14.30;99.90;;;;;;5054738;28;20052;-72
2022/05/03 11:06:25;;;;;;;8.45;2.60;;;14.10;99.90;;;;;;5056718;28;20087;-73
2022/05/03 11:09:02;;;;;;;11.13;3.05;;;14.10;99.90;;;;;;5059165;28;20056;-73
2022/05/03 11:11:43;;;;;;;10.75;2.85;;;14.10;99.90;;;;;;5058579;28;20101;-72
2022/05/03 11:14:16;;;;;;;10.50;2.70;;;14.20;99.90;;;;;;5058679;28;20396;-73
2022/05/03 11:16:47;;;;;;;9.87;2.70;;;14.20;99.90;;;;;;5058588;28;20075;-73
2022/05/03 11:19:15;;;;;;;10.95;2.97;;;14.10;99.90;;;;;;5041275;28;20049;-72
2022/05/03 11:21:42;;;;;;;11.05;2.67;;;14.20;99.90;;;;;;5055408;28;20048;-72
2022/05/03 11:24:36;;;;;;;6.28;2.28;;;14.30;99.90;;;;;;5058376;28;20124;-72
2022/05/03 11:27:05;;;;;;;;;;;14.30;99.90;;;;;;5055600;28;20063;-72
2022/05/03 11:29:38;;;;;;;9.75;2.85;;;14.30;99.90;;;;;;5058530;28;19920;-73
2022/05/03 11:32:07;;;;;;;;;;;14.30;99.90;;;;;;5058899;28;20102;-72
2022/05/03 11:34:33;;;;;;;11.38;2.30;;;14.30;99.90;;;;;;5058350;28;19928;-73
2022/05/03 11:37:00;;;;;;;10.82;2.50;;;14.20;99.90;;;;;;5040473;28;20049;-73
2022/05/03 11:39:25;;;;;;;9.32;2.20;;;14.10;99.90;;;;;;5058222;28;20045;-73
2022/05/03 11:41:51;;;;;;;9.48;2.35;;;14.20;99.90;;;;;;5054519;28;20059;-72
2022/05/03 11:44:18;;;;;;;11.35;2.40;;;14.50;99.90;;;;;;5041003;28;20469;-72
2022/05/03 11:46:45;;;;;;;7.95;2.20;;;14.50;99.90;;;;;;5040167;28;20056;-73
2022/05/03 11:49:13;;;;;;;8.13;2.38;;;14.70;99.90;;;;;;5057834;28;20500;-71
2022/05/03 11:57:14;;;;;;;9.50;2.53;;;14.70;99.50;;;;;;5056625;28;20053;-72
2022/05/03 11:59:41;;;;;;;10.73;2.58;;;14.80;99.90;;;;;;5057762;28;20049;-73
2022/05/03 12:02:19;;;;;;;7.68;2.25;;;14.80;99.00;;;;;;5057644;28;20417;-72
2022/05/03 12:05:16;;;;;;;9.40;2.85;;;14.70;98.70;;;;;;5040030;28;20045;-73
2022/05/03 12:07:55;;;;;;;5.68;2.45;;;14.60;99.80;;;;;;5057670;28;20465;-73
2022/05/03 12:10:40;;;;;;;11.05;2.28;;;14.70;99.80;;;;;;5040428;28;20057;-73
2022/05/03 12:13:09;;;;;;;8.02;2.33;;;14.80;99.40;;;;;;5057394;28;20048;-72
2022/05/03 12:15:49;;;;;;;7.63;2.45;;;14.80;98.70;;;;;;5057283;28;20060;-72
2022/05/03 12:18:28;;;;;;;8.55;2.30;;;14.90;99.90;;;;;;5057607;28;20045;-73
2022/05/03 12:21:02;;;;;;;7.07;1.92;;;15.10;98.50;;;;;;5039678;28;20048;-73
2022/05/03 12:23:30;;;;;;;6.47;1.80;;;15.20;98.70;;;;;;5057203;28;20139;-73
2022/05/03 12:25:58;;;;;;;11.60;2.55;;;15.10;97.90;;;;;;5056690;28;20120;-73
2022/05/03 12:28:37;;;;;;;11.75;2.35;;;15.20;98.20;;;;;;5057056;28;20049;-73
2022/05/03 12:31:05;;;;;;;10.80;2.20;;;15.20;98.00;;;;;;5057434;28;20080;-73
2022/05/03 12:33:32;;;;;;;7.28;2.38;;;15.30;97.40;;;;;;5054219;28;20063;-73
2022/05/03 12:35:58;;;;;;;11.20;2.47;;;15.40;98.50;;;;;;5057339;28;20033;-72
2022/05/03 12:38:26;;;;;;;10.63;2.15;;;15.60;98.30;;;;;;5053297;28;20106;-70
2022/05/03 12:40:52;;;;;;;9.38;2.30;;;15.60;97.80;;;;;;5057278;28;20060;-70
2022/05/03 12:43:21;;;;;;;6.00;1.95;;;15.50;97.80;;;;;;5056940;28;20045;-73
2022/05/03 12:46:03;;;;;;;11.18;2.47;;;15.40;97.00;;;;;;5054159;28;20355;-73
2022/05/03 12:48:31;;;;;;;9.18;2.53;;;15.50;96.90;;;;;;5056625;28;20048;-73
2022/05/03 12:50:58;;;;;;;9.50;2.38;;;15.50;96.60;;;;;;5057168;28;20055;-73
2022/05/03 12:53:24;;;;;;;8.80;1.95;;;15.40;97.10;;;;;;5056526;28;20044;-73
2022/05/03 12:55:51;;;;;;;10.05;2.38;;;15.40;97.40;;;;;;5055899;28;20060;-73
2022/05/03 12:58:22;;;;;;;11.32;2.50;;;15.30;97.10;;;;;;5056804;28;20049;-74
2022/05/03 13:00:53;;;;;;;9.90;3.00;;;15.00;96.00;;;;;;5056310;28;20053;-70
2022/05/03 13:03:21;;;;;;;6.55;1.98;;;14.80;96.90;;;;;;5056403;28;20095;-71
2022/05/03 13:05:47;;;;;;;6.05;1.83;;;14.80;98.00;;;;;;5056005;28;20041;-72
2022/05/03 13:08:12;;;;;;;5.90;1.83;;;15.00;98.70;;;;;;5056754;28;20059;-72
2022/05/03 13:10:38;;;;;;;9.38;2.08;;;15.10;98.00;;;;;;5056392;28;20414;-72
2022/05/03 13:13:05;;;;;;;8.45;2.40;;;15.10;97.30;;;;;;5038991;28;20063;-72
2022/05/03 13:15:31;;;;;;;6.07;1.95;;;15.00;97.10;;;;;;5056395;28;20064;-72
2022/05/03 13:17:57;;;;;;;8.70;1.88;;;14.90;97.40;;;;;;5056346;28;20049;-70
2022/05/03 13:20:23;;;;;;;11.05;2.70;;;14.90;97.50;;;;;;5056558;28;20423;-71
2022/05/03 13:22:49;;;;;;;7.32;1.95;;;15.30;98.10;;;;;;5039227;28;20040;-70
2022/05/03 13:25:15;;;;;;;8.27;2.00;;;15.30;97.30;;;;;;5056035;28;20044;-71
2022/05/03 13:27:40;;;;;;;12.32;2.25;;;15.60;97.60;;;;;;5055326;28;20060;-72
2022/05/03 13:30:06;;;;;;;7.65;2.17;;;15.70;96.40;;;;;;5055784;28;20048;-73